Time;durP1;ratioP1;P1;durP2;ratioP2;P2;SDS_P1;SDS_P2;PMS_P1;PMS_P2;Temp;Humidity;BMP_temperature;BMP_pressure;BME280_temperature;BME280_humidity;BME280_pressure;Samples;Min_cycle;Max_cycle;Signal;HPM_P1;HPM_P2
2023/03/17 00:01:02;;;;;;;1.83;0.60;;;7.90;99.90;;;;;;5034943;28;20022;-86
2023/03/17 00:03:29;;;;;;;1.48;0.50;;;7.90;99.90;;;;;;5034278;28;20034;-86
2023/03/17 00:05:57;;;;;;;1.70;0.50;;;7.90;99.90;;;;;;5038492;28;20184;-85
2023/03/17 00:08:34;;;;;;;2.00;0.60;;;7.80;99.90;;;;;;5019961;28;20037;-83
2023/03/17 00:11:01;;;;;;;2.28;0.60;;;7.80;99.90;;;;;;5029910;28;20053;-90
2023/03/17 00:13:29;;;;;;;1.35;0.40;;;7.80;99.90;;;;;;5030181;28;20035;-86
2023/03/17 00:15:59;;;;;;;1.23;0.50;;;7.80;99.90;;;;;;5041463;28;20034;-88
2023/03/17 00:18:25;;;;;;;;;;;7.70;99.90;;;;;;5036609;28;20030;-90
2023/03/17 00:20:51;;;;;;;2.88;0.68;;;7.70;99.90;;;;;;5032856;28;19963;-86
2023/03/17 00:23:21;;;;;;;3.30;0.80;;;7.70;99.90;;;;;;5029555;28;20053;-86
2023/03/17 00:25:48;;;;;;;2.00;0.63;;;7.70;99.90;;;;;;5027590;28;20381;-92
2023/03/17 00:28:25;;;;;;;2.53;0.77;;;7.70;99.90;;;;;;5014508;28;20043;-87
2023/03/17 00:30:56;;;;;;;1.42;0.60;;;7.60;99.90;;;;;;5032971;28;20021;-88
2023/03/17 00:33:25;;;;;;;1.75;0.60;;;7.60;99.90;;;;;;5024206;28;20025;-87
2023/03/17 00:35:51;;;;;;;1.27;0.50;;;7.60;99.90;;;;;;5011634;28;20079;-87
2023/03/17 00:38:19;;;;;;;1.58;0.40;;;7.50;99.90;;;;;;5037100;28;20029;-86
2023/03/17 00:40:45;;;;;;;2.90;0.60;;;7.50;99.90;;;;;;5035789;28;20535;-86
2023/03/17 00:43:12;;;;;;;3.22;0.60;;;7.50;99.90;;;;;;5034912;28;20086;-86
2023/03/17 00:45:39;;;;;;;1.77;0.50;;;7.50;99.90;;;;;;5037158;28;20113;-91
2023/03/17 00:48:27;;;;;;;2.65;0.50;;;7.60;99.90;;;;;;5029303;28;20044;-87
2023/03/17 00:50:53;;;;;;;1.45;0.60;;;7.60;99.90;;;;;;5019022;28;20029;-90
2023/03/17 00:53:22;;;;;;;4.53;0.80;;;7.50;99.90;;;;;;5034725;28;20060;-89
2023/03/17 00:55:48;;;;;;;1.80;0.60;;;7.60;99.90;;;;;;5035704;28;20029;-86
2023/03/17 00:58:27;;;;;;;1.92;0.50;;;7.50;99.90;;;;;;5014970;28;20381;-84
2023/03/17 01:00:54;;;;;;;1.13;0.40;;;7.50;99.90;;;;;;5031562;28;20026;-88
2023/03/17 01:03:20;;;;;;;1.30;0.50;;;7.50;99.90;;;;;;5011713;28;20033;-90
2023/03/17 01:05:49;;;;;;;1.10;0.40;;;7.60;99.90;;;;;;5022315;28;20029;-87
2023/03/17 01:08:15;;;;;;;2.55;0.60;;;7.60;99.90;;;;;;5010443;28;20479;-84
2023/03/17 01:10:42;;;;;;;1.77;0.63;;;7.50;99.90;;;;;;5014967;28;20086;-84
2023/03/17 01:13:11;;;;;;;1.52;0.68;;;7.50;99.90;;;;;;5025884;28;20033;-86
2023/03/17 01:15:49;;;;;;;2.17;0.50;;;7.50;99.90;;;;;;5030628;28;20093;-85
2023/03/17 01:18:18;;;;;;;1.48;0.50;;;7.50;99.90;;;;;;5049682;28;20037;-87
2023/03/17 01:20:44;;;;;;;1.65;0.60;;;7.40;99.90;;;;;;5038935;28;20105;-88
2023/03/17 01:23:11;;;;;;;1.20;0.50;;;7.40;99.90;;;;;;5011282;28;20029;-89
2023/03/17 01:25:37;;;;;;;1.52;0.50;;;7.40;99.90;;;;;;5049081;28;20505;-90
2023/03/17 01:28:04;;;;;;;1.70;0.50;;;7.30;99.90;;;;;;5037890;28;20041;-87
2023/03/17 01:30:32;;;;;;;1.48;0.50;;;7.40;99.90;;;;;;5019625;28;20049;-91
2023/03/17 01:32:58;;;;;;;1.85;0.40;;;7.40;99.90;;;;;;5032178;28;20503;-90
2023/03/17 01:35:28;;;;;;;1.30;0.40;;;7.30;99.90;;;;;;5034536;28;20041;-88
2023/03/17 01:37:56;;;;;;;1.33;0.50;;;7.30;99.90;;;;;;5018053;28;20371;-88
2023/03/17 01:40:29;;;;;;;1.20;0.40;;;7.30;99.90;;;;;;5036976;28;20501;-90
2023/03/17 01:43:21;;;;;;;2.97;0.40;;;7.40;99.90;;;;;;5012572;28;20116;-88
2023/03/17 01:46:21;;;;;;;2.20;0.50;;;7.40;99.90;;;;;;5020109;28;20041;-88
2023/03/17 01:48:47;;;;;;;;;;;7.30;99.90;;;;;;5014862;28;20091;-91
2023/03/17 01:51:20;;;;;;;1.25;0.40;;;7.30;99.90;;;;;;5049666;28;19910;-87
2023/03/17 01:53:51;;;;;;;1.73;0.40;;;7.20;99.90;;;;;;5043743;28;20021;-90
2023/03/17 01:56:18;;;;;;;1.42;0.60;;;7.30;99.90;;;;;;5050624;28;20025;-88
2023/03/17 01:58:47;;;;;;;1.45;0.45;;;7.30;99.90;;;;;;5048060;28;20116;-88
2023/03/17 02:01:12;;;;;;;1.63;0.50;;;7.20;99.90;;;;;;5014899;28;20060;-90
2023/03/17 02:03:39;;;;;;;1.27;0.40;;;7.20;99.90;;;;;;5053831;28;20104;-89
2023/03/17 02:06:06;;;;;;;1.42;0.30;;;7.30;99.90;;;;;;5037060;28;20024;-86
2023/03/17 02:08:31;;;;;;;1.40;0.40;;;7.20;99.90;;;;;;5019368;28;20509;-87
2023/03/17 02:11:02;;;;;;;1.35;0.40;;;7.20;99.90;;;;;;5037558;28;20022;-89
2023/03/17 02:13:28;;;;;;;0.80;0.30;;;7.20;99.90;;;;;;5036359;28;20072;-87
2023/03/17 02:15:54;;;;;;;1.98;0.43;;;7.30;99.90;;;;;;5031511;28;20032;-90
2023/03/17 02:18:22;;;;;;;1.63;0.40;;;7.30;99.90;;;;;;5032272;28;20041;-91
2023/03/17 02:20:48;;;;;;;1.05;0.40;;;7.30;99.90;;;;;;5026864;28;20021;-87
2023/03/17 02:23:21;;;;;;;3.45;0.70;;;7.20;99.90;;;;;;5041825;28;20485;-89
2023/03/17 02:25:48;;;;;;;1.63;0.47;;;7.30;99.90;;;;;;5039801;28;20492;-85
2023/03/17 02:28:20;;;;;;;1.35;0.40;;;7.30;99.90;;;;;;5039664;28;20072;-87
2023/03/17 02:30:47;;;;;;;1.05;0.40;;;7.10;99.90;;;;;;5030241;28;20021;-86
2023/03/17 02:33:14;;;;;;;1.25;0.40;;;7.10;99.90;;;;;;5031065;28;20116;-89
2023/03/17 02:35:41;;;;;;;1.20;0.40;;;7.20;99.90;;;;;;5031297;28;20179;-85
2023/03/17 02:38:07;;;;;;;1.13;0.40;;;7.20;99.90;;;;;;5036904;28;20041;-90
2023/03/17 02:40:32;;;;;;;1.17;0.40;;;7.10;99.90;;;;;;5031864;28;20057;-89
2023/03/17 02:42:59;;;;;;;1.55;0.40;;;7.10;99.90;;;;;;5022539;28;20041;-88
2023/03/17 02:45:27;;;;;;;1.27;0.40;;;7.20;99.90;;;;;;5044703;28;20029;-89
2023/03/17 02:47:54;;;;;;;2.03;0.40;;;7.10;99.90;;;;;;5023138;28;20082;-88
2023/03/17 02:50:23;;;;;;;0.90;0.30;;;7.10;99.90;;;;;;5021634;28;20021;-89
2023/03/17 02:52:49;;;;;;;1.27;0.50;;;7.20;99.90;;;;;;5023245;28;20373;-91
2023/03/17 02:55:16;;;;;;;1.40;0.30;;;7.10;99.90;;;;;;5037992;28;20465;-89
2023/03/17 02:57:41;;;;;;;2.58;0.40;;;7.10;99.90;;;;;;5022360;28;20025;-89
2023/03/17 03:00:09;;;;;;;1.42;0.40;;;7.10;99.90;;;;;;5030230;28;20048;-86
2023/03/17 03:02:38;;;;;;;1.00;0.30;;;7.00;99.90;;;;;;5024389;28;20038;-86
2023/03/17 03:05:04;;;;;;;1.27;0.30;;;7.00;99.90;;;;;;5040209;28;20124;-87
2023/03/17 03:07:31;;;;;;;1.25;0.40;;;7.10;99.90;;;;;;5038054;28;20025;-86
2023/03/17 03:09:57;;;;;;;1.20;0.38;;;7.10;99.90;;;;;;5019941;28;20029;-88
2023/03/17 03:12:23;;;;;;;1.02;0.38;;;7.10;99.90;;;;;;5040210;28;20033;-88
2023/03/17 03:14:48;;;;;;;1.50;0.30;;;7.20;99.90;;;;;;5028533;28;20055;-86
2023/03/17 03:17:15;;;;;;;1.50;0.40;;;7.20;99.90;;;;;;5036499;28;20029;-85
2023/03/17 03:19:41;;;;;;;1.50;0.40;;;7.20;99.90;;;;;;5024847;28;20025;-90
2023/03/17 03:22:07;;;;;;;2.03;0.40;;;7.20;99.90;;;;;;5038350;28;20484;-90
2023/03/17 03:24:33;;;;;;;0.82;0.30;;;7.20;99.90;;;;;;5040259;28;20040;-84
2023/03/17 03:26:59;;;;;;;1.48;0.30;;;7.20;99.90;;;;;;5033934;28;20041;-90
2023/03/17 03:29:25;;;;;;;3.47;0.40;;;7.20;99.90;;;;;;5052604;28;20389;-89
2023/03/17 03:31:51;;;;;;;0.80;0.30;;;7.30;99.90;;;;;;5011326;28;20021;-86
2023/03/17 03:34:17;;;;;;;2.28;0.50;;;7.30;99.90;;;;;;5040574;28;20024;-86
2023/03/17 03:36:43;;;;;;;1.02;0.30;;;7.20;99.90;;;;;;5034847;28;20017;-88
2023/03/17 03:39:09;;;;;;;1.50;0.40;;;7.30;99.90;;;;;;5040642;28;20040;-86
2023/03/17 03:41:35;;;;;;;0.70;0.30;;;7.20;99.90;;;;;;5056462;28;20086;-84
2023/03/17 03:44:00;;;;;;;0.80;0.22;;;7.20;99.90;;;;;;5039636;28;20431;-84
2023/03/17 03:46:27;;;;;;;1.48;0.38;;;7.20;99.90;;;;;;5042563;28;20029;-89
2023/03/17 03:48:54;;;;;;;1.13;0.28;;;7.30;99.90;;;;;;5024073;28;20097;-90
2023/03/17 03:51:19;;;;;;;1.40;0.40;;;7.20;99.90;;;;;;5019208;28;20429;-88
2023/03/17 03:53:47;;;;;;;1.30;0.40;;;7.20;99.90;;;;;;5038563;28;20041;-85
2023/03/17 03:56:13;;;;;;;2.28;0.40;;;7.20;99.90;;;;;;5035081;28;20091;-84
2023/03/17 03:58:39;;;;;;;1.17;0.40;;;7.20;99.90;;;;;;5051680;28;20069;-86
2023/03/17 04:01:06;;;;;;;1.58;0.40;;;7.10;99.90;;;;;;5036303;28;20234;-85
2023/03/17 04:03:31;;;;;;;1.13;0.40;;;7.00;99.90;;;;;;5028093;28;20030;-86
2023/03/17 04:05:58;;;;;;;1.33;0.40;;;7.00;99.90;;;;;;5039228;28;20537;-86
2023/03/17 04:08:24;;;;;;;1.00;0.30;;;7.00;99.90;;;;;;5050617;28;20104;-90
2023/03/17 04:10:50;;;;;;;1.08;0.30;;;7.00;99.90;;;;;;5029398;28;20508;-86
2023/03/17 04:13:15;;;;;;;1.17;0.30;;;6.90;99.90;;;;;;5037422;28;20484;-85
2023/03/17 04:15:41;;;;;;;0.65;0.28;;;6.90;99.90;;;;;;5016376;28;20026;-86
2023/03/17 04:18:07;;;;;;;1.48;0.50;;;6.90;99.90;;;;;;5020560;28;20077;-86
2023/03/17 04:20:32;;;;;;;3.22;0.50;;;6.90;99.90;;;;;;5033999;28;20034;-87
2023/03/17 04:22:58;;;;;;;1.95;0.40;;;6.90;99.90;;;;;;5051609;28;20021;-91
2023/03/17 04:25:24;;;;;;;2.15;0.63;;;6.80;99.90;;;;;;5037254;28;20044;-86
2023/03/17 04:27:50;;;;;;;1.33;0.43;;;6.70;99.90;;;;;;5037728;28;20049;-86
2023/03/17 04:30:16;;;;;;;1.45;0.60;;;6.70;99.90;;;;;;5013675;28;20094;-86
2023/03/17 04:32:43;;;;;;;1.63;0.40;;;6.70;99.90;;;;;;5021200;28;20030;-89
2023/03/17 04:35:14;;;;;;;2.50;0.50;;;6.70;99.90;;;;;;5040679;28;20017;-86
2023/03/17 04:37:40;;;;;;;2.78;0.50;;;6.70;99.90;;;;;;5033534;28;20087;-87
2023/03/17 04:40:08;;;;;;;1.55;0.45;;;6.70;99.90;;;;;;5029052;28;20104;-86
2023/03/17 04:42:35;;;;;;;2.58;0.50;;;6.60;99.90;;;;;;5034371;28;20113;-86
2023/03/17 04:45:01;;;;;;;1.40;0.60;;;6.70;99.90;;;;;;5040266;28;20037;-87
2023/03/17 04:47:27;;;;;;;1.13;0.40;;;6.60;99.90;;;;;;5035905;28;20128;-87
2023/03/17 04:49:52;;;;;;;1.50;0.47;;;6.60;99.90;;;;;;5036183;28;20108;-86
2023/03/17 04:52:18;;;;;;;1.27;0.50;;;6.50;99.90;;;;;;5037188;28;20116;-85
2023/03/17 04:54:44;;;;;;;1.98;0.60;;;6.50;99.90;;;;;;5037158;28;20029;-91
2023/03/17 04:57:09;;;;;;;0.90;0.30;;;6.40;99.90;;;;;;5033697;28;20033;-91
2023/03/17 04:59:35;;;;;;;1.27;0.40;;;6.40;99.90;;;;;;5020252;28;20060;-88
2023/03/17 05:02:01;;;;;;;2.70;0.40;;;6.40;99.90;;;;;;5023005;28;20052;-90
2023/03/17 05:04:26;;;;;;;2.70;0.40;;;6.40;99.90;;;;;;5033539;28;20175;-92
2023/03/17 05:06:52;;;;;;;1.10;0.40;;;6.40;99.90;;;;;;5028708;28;20075;-89
2023/03/17 05:09:18;;;;;;;1.33;0.30;;;6.40;99.90;;;;;;5029161;28;20033;-89
2023/03/17 05:11:43;;;;;;;2.25;0.40;;;6.40;99.90;;;;;;5013038;28;20444;-90
2023/03/17 05:14:09;;;;;;;1.73;0.50;;;6.40;99.90;;;;;;5018651;28;20033;-91
2023/03/17 05:16:35;;;;;;;1.77;0.40;;;6.50;99.90;;;;;;5016494;28;20029;-86
2023/03/17 05:19:00;;;;;;;3.10;0.40;;;6.60;99.90;;;;;;5019830;28;20025;-84
2023/03/17 05:21:26;;;;;;;1.05;0.40;;;6.60;99.90;;;;;;5021663;28;20377;-87
2023/03/17 05:23:52;;;;;;;0.90;0.40;;;6.60;99.90;;;;;;5047581;28;20044;-84
2023/03/17 05:26:18;;;;;;;1.73;0.40;;;6.60;99.90;;;;;;5025865;28;20274;-84
2023/03/17 05:28:44;;;;;;;1.45;0.30;;;6.60;99.90;;;;;;5024852;28;20026;-87
2023/03/17 05:31:10;;;;;;;1.75;0.40;;;6.50;99.90;;;;;;5040696;28;20041;-87
2023/03/17 05:33:36;;;;;;;0.98;0.32;;;6.50;99.90;;;;;;5041283;28;20029;-86
2023/03/17 05:36:02;;;;;;;1.42;0.50;;;6.40;99.90;;;;;;5044097;28;20029;-84
2023/03/17 05:38:28;;;;;;;1.33;0.40;;;6.50;99.90;;;;;;5054336;28;20051;-86
2023/03/17 05:40:54;;;;;;;1.98;0.50;;;6.50;99.90;;;;;;5038944;28;20082;-87
2023/03/17 05:43:20;;;;;;;0.93;0.40;;;6.50;99.90;;;;;;5037471;28;20116;-87
2023/03/17 05:45:46;;;;;;;1.27;0.50;;;6.50;99.90;;;;;;5030423;28;20033;-86
2023/03/17 05:48:12;;;;;;;1.60;0.40;;;6.40;99.90;;;;;;5041384;28;20163;-86
2023/03/17 05:50:38;;;;;;;1.90;0.40;;;6.40;99.90;;;;;;5056038;28;20107;-87
2023/03/17 05:53:05;;;;;;;1.17;0.32;;;6.40;99.90;;;;;;5020491;28;20029;-86
2023/03/17 05:55:30;;;;;;;1.52;0.40;;;6.40;99.90;;;;;;5027238;28;20034;-86
2023/03/17 05:57:56;;;;;;;1.80;0.45;;;6.30;99.90;;;;;;5035856;28;20029;-85
2023/03/17 06:00:22;;;;;;;1.67;0.40;;;6.30;99.90;;;;;;5023062;28;20033;-86
2023/03/17 06:02:48;;;;;;;0.90;0.30;;;6.20;99.90;;;;;;5022158;28;20088;-86
2023/03/17 06:05:14;;;;;;;1.38;0.40;;;6.20;99.90;;;;;;5018429;28;20029;-88
2023/03/17 06:07:40;;;;;;;1.10;0.40;;;6.20;99.90;;;;;;5039013;28;20028;-90
2023/03/17 06:10:06;;;;;;;1.00;0.38;;;6.30;99.90;;;;;;5022532;28;20037;-88
2023/03/17 06:12:32;;;;;;;1.63;0.40;;;6.30;99.90;;;;;;5023797;28;20029;-89
2023/03/17 06:14:58;;;;;;;1.20;0.30;;;6.40;99.90;;;;;;5032107;28;20044;-86
2023/03/17 06:17:24;;;;;;;0.95;0.30;;;6.40;99.90;;;;;;5021952;28;20025;-88
2023/03/17 06:19:49;;;;;;;1.30;0.30;;;6.40;99.90;;;;;;5020459;28;20059;-87
2023/03/17 06:22:15;;;;;;;1.75;0.43;;;6.40;99.90;;;;;;5021227;28;20020;-90
2023/03/17 06:24:41;;;;;;;1.40;0.50;;;6.40;99.90;;;;;;5022590;28;20401;-86
2023/03/17 06:27:09;;;;;;;1.20;0.40;;;6.40;99.90;;;;;;5012764;28;20042;-86
2023/03/17 06:29:36;;;;;;;2.10;0.40;;;6.50;99.90;;;;;;5039961;28;20068;-85
2023/03/17 06:32:02;;;;;;;1.92;0.40;;;6.50;99.90;;;;;;5037339;28;20033;-87
2023/03/17 06:34:28;;;;;;;1.52;0.50;;;6.50;99.90;;;;;;5039877;28;20475;-90
2023/03/17 06:36:54;;;;;;;2.10;0.50;;;6.50;99.90;;;;;;5024360;28;20053;-87
2023/03/17 06:39:20;;;;;;;2.05;0.43;;;6.60;99.90;;;;;;5037074;28;20037;-92
2023/03/17 06:41:46;;;;;;;2.75;0.50;;;6.50;99.90;;;;;;5021086;28;20026;-87
2023/03/17 06:44:12;;;;;;;1.30;0.40;;;6.60;99.90;;;;;;5043090;28;20039;-86
2023/03/17 06:46:38;;;;;;;1.67;0.40;;;6.60;99.90;;;;;;5017493;28;20037;-87
2023/03/17 06:49:04;;;;;;;1.33;0.50;;;6.60;99.90;;;;;;5034500;28;20492;-84
2023/03/17 06:51:31;;;;;;;1.10;0.32;;;6.60;99.90;;;;;;5036566;28;20115;-87
2023/03/17 06:53:57;;;;;;;2.40;0.40;;;6.70;99.90;;;;;;5016906;28;20036;-85
2023/03/17 06:56:22;;;;;;;1.25;0.30;;;6.70;99.90;;;;;;5016869;28;20131;-84
2023/03/17 06:58:48;;;;;;;2.30;0.70;;;6.70;99.90;;;;;;5035250;28;20048;-84
2023/03/17 07:01:14;;;;;;;1.38;0.47;;;6.90;99.90;;;;;;5042025;28;20033;-85
2023/03/17 07:03:40;;;;;;;1.63;0.50;;;7.00;99.90;;;;;;5041025;28;20040;-87
2023/03/17 07:06:07;;;;;;;1.42;0.40;;;7.00;99.90;;;;;;5040074;28;20090;-84
2023/03/17 07:08:33;;;;;;;1.40;0.50;;;7.10;99.90;;;;;;5037847;28;20029;-86
2023/03/17 07:10:59;;;;;;;0.82;0.50;;;7.10;99.90;;;;;;5031900;28;20033;-87
2023/03/17 07:13:26;;;;;;;2.72;0.40;;;7.20;99.90;;;;;;5037783;28;20033;-90
2023/03/17 07:15:52;;;;;;;1.17;0.43;;;7.30;99.90;;;;;;5035346;28;20036;-90
2023/03/17 07:18:18;;;;;;;1.40;0.50;;;7.40;99.90;;;;;;5019020;28;20049;-87
2023/03/17 07:20:45;;;;;;;1.75;0.60;;;7.50;99.90;;;;;;5022381;28;20079;-89
2023/03/17 07:23:18;;;;;;;1.98;0.40;;;7.60;99.90;;;;;;5037768;28;20021;-87
2023/03/17 07:25:46;;;;;;;1.02;0.30;;;7.70;99.90;;;;;;5033887;28;20041;-87
2023/03/17 07:28:12;;;;;;;1.98;0.40;;;7.80;99.90;;;;;;5033478;28;20452;-87
2023/03/17 07:30:37;;;;;;;2.15;0.45;;;7.90;99.90;;;;;;5039729;28;20519;-86
2023/03/17 07:33:03;;;;;;;1.35;0.40;;;8.00;99.90;;;;;;5029314;28;20049;-90
2023/03/17 07:35:30;;;;;;;1.30;0.50;;;8.10;99.90;;;;;;5035803;28;20314;-88
2023/03/17 07:37:56;;;;;;;1.35;0.50;;;8.10;99.90;;;;;;5021961;28;20036;-88
2023/03/17 07:40:22;;;;;;;1.60;0.60;;;8.20;99.90;;;;;;5014307;28;20033;-89
2023/03/17 07:42:48;;;;;;;1.10;0.40;;;8.30;99.90;;;;;;5029193;28;20431;-86
2023/03/17 07:45:14;;;;;;;1.42;0.30;;;8.30;99.90;;;;;;5038154;28;20037;-90
2023/03/17 07:47:40;;;;;;;1.67;0.35;;;8.40;99.90;;;;;;5030022;28;20055;-91
2023/03/17 07:50:06;;;;;;;1.08;0.35;;;8.50;99.90;;;;;;5036720;28;20100;-90
2023/03/17 07:52:35;;;;;;;0.93;0.30;;;8.50;99.90;;;;;;5037274;28;20022;-91
2023/03/17 07:55:03;;;;;;;1.38;0.40;;;8.60;99.90;;;;;;5019353;28;20028;-86
2023/03/17 07:57:29;;;;;;;1.25;0.30;;;8.70;99.90;;;;;;5010004;28;20052;-90
2023/03/17 07:59:55;;;;;;;1.45;0.30;;;8.80;99.90;;;;;;5020153;28;20037;-90
2023/03/17 08:02:21;;;;;;;0.93;0.40;;;8.90;99.90;;;;;;5022986;28;20028;-88
2023/03/17 08:04:46;;;;;;;1.30;0.47;;;9.00;99.90;;;;;;5029244;28;20613;-91
2023/03/17 08:07:14;;;;;;;1.00;0.30;;;9.10;99.90;;;;;;5037493;28;20406;-89
2023/03/17 08:09:40;;;;;;;0.93;0.32;;;9.20;99.90;;;;;;5039520;28;20461;-91
2023/03/17 08:12:07;;;;;;;1.10;0.30;;;9.30;99.90;;;;;;5040377;28;20049;-91
2023/03/17 08:14:33;;;;;;;2.15;0.40;;;9.40;99.90;;;;;;5039980;28;20071;-92
2023/03/17 08:16:59;;;;;;;1.08;0.40;;;9.50;99.90;;;;;;5029644;28;20049;-92
2023/03/17 08:19:24;;;;;;;1.70;0.30;;;9.60;99.90;;;;;;5035739;28;20024;-86
2023/03/17 08:21:50;;;;;;;1.30;0.40;;;9.70;99.90;;;;;;5034461;28;20516;-90
2023/03/17 08:24:16;;;;;;;1.67;0.30;;;9.70;99.90;;;;;;5039953;28;20037;-91
2023/03/17 08:26:42;;;;;;;1.15;0.40;;;9.80;99.90;;;;;;5035657;28;20025;-90
2023/03/17 08:29:08;;;;;;;1.00;0.40;;;9.80;99.90;;;;;;5052863;28;20047;-92
2023/03/17 08:31:35;;;;;;;2.28;0.50;;;9.80;99.90;;;;;;5035760;28;20466;-90
2023/03/17 08:34:01;;;;;;;1.20;0.40;;;9.80;99.90;;;;;;5035342;28;20032;-88
2023/03/17 08:36:28;;;;;;;1.10;0.50;;;9.80;99.90;;;;;;5034081;28;20025;-89
2023/03/17 08:38:54;;;;;;;2.13;0.30;;;10.00;99.90;;;;;;5038608;28;20060;-89
2023/03/17 08:41:23;;;;;;;1.17;0.45;;;10.00;99.90;;;;;;5020412;28;20052;-92
2023/03/17 08:43:49;;;;;;;2.35;0.40;;;10.00;99.90;;;;;;5036444;28;20112;-92
2023/03/17 08:46:18;;;;;;;1.90;0.40;;;10.10;99.90;;;;;;5024262;28;20465;-86
2023/03/17 08:48:45;;;;;;;1.52;0.40;;;10.10;99.90;;;;;;5048872;28;20443;-86
2023/03/17 08:51:12;;;;;;;1.40;0.40;;;10.30;99.90;;;;;;5029780;28;20036;-88
2023/03/17 08:53:38;;;;;;;1.10;0.30;;;10.40;99.90;;;;;;5052562;28;20511;-89
2023/03/17 08:56:05;;;;;;;1.35;0.40;;;10.50;99.90;;;;;;5033545;28;20049;-93
2023/03/17 08:58:32;;;;;;;0.98;0.32;;;10.50;99.90;;;;;;5037053;28;20034;-91
2023/03/17 09:00:59;;;;;;;1.35;0.40;;;10.60;99.90;;;;;;5037088;28;20032;-88
2023/03/17 09:03:25;;;;;;;1.80;0.47;;;10.60;99.90;;;;;;5022502;28;20040;-90
2023/03/17 09:05:51;;;;;;;1.33;0.45;;;10.70;99.90;;;;;;5029585;28;20033;-87
2023/03/17 09:08:17;;;;;;;1.20;0.50;;;10.80;99.90;;;;;;5011423;28;20025;-91
2023/03/17 09:10:43;;;;;;;1.25;0.50;;;11.00;99.90;;;;;;5009502;28;20025;-91
2023/03/17 09:13:09;;;;;;;1.92;0.40;;;11.20;99.90;;;;;;5029637;28;20421;-86
2023/03/17 09:15:36;;;;;;;2.13;0.45;;;11.40;99.90;;;;;;5050132;28;20017;-88
2023/03/17 09:18:02;;;;;;;1.40;0.40;;;11.40;99.90;;;;;;5019036;28;20131;-90
2023/03/17 09:20:28;;;;;;;2.28;0.45;;;11.50;99.90;;;;;;5039150;28;20040;-90
2023/03/17 09:22:55;;;;;;;1.00;0.40;;;11.70;99.90;;;;;;5021401;28;20381;-88
2023/03/17 09:25:20;;;;;;;1.00;0.40;;;11.70;99.90;;;;;;4997375;28;20057;-88
2023/03/17 09:27:46;;;;;;;1.10;0.40;;;11.80;99.90;;;;;;5042178;28;20033;-90
2023/03/17 09:30:12;;;;;;;2.55;0.40;;;11.90;99.90;;;;;;5029633;28;20041;-88
2023/03/17 09:32:39;;;;;;;1.40;0.40;;;12.00;99.90;;;;;;5026384;28;20076;-91
2023/03/17 09:35:05;;;;;;;2.58;0.55;;;12.10;99.90;;;;;;5010816;28;20102;-89
2023/03/17 09:37:33;;;;;;;1.88;0.40;;;12.10;99.90;;;;;;5016780;28;20043;-92
2023/03/17 09:39:59;;;;;;;2.53;0.40;;;12.20;99.90;;;;;;5025876;28;20129;-93
2023/03/17 09:42:57;;;;;;;1.77;0.40;;;12.30;99.90;;;;;;5027467;28;20156;-88
2023/03/17 09:45:32;;;;;;;1.15;0.40;;;12.30;99.90;;;;;;5009918;28;20132;-88
2023/03/17 09:48:22;;;;;;;1.58;0.47;;;12.40;99.90;;;;;;5025057;28;20038;-92
2023/03/17 09:50:56;;;;;;;1.85;0.45;;;12.50;99.90;;;;;;5026472;28;20041;-92
2023/03/17 09:53:26;;;;;;;1.77;0.43;;;12.80;99.90;;;;;;5011186;28;20040;-90
2023/03/17 09:55:57;;;;;;;1.73;0.50;;;13.00;99.90;;;;;;5043611;28;20095;-91
2023/03/17 09:58:32;;;;;;;2.17;0.50;;;13.00;99.90;;;;;;5016512;28;20068;-88
2023/03/17 10:00:59;;;;;;;2.28;0.60;;;13.10;99.90;;;;;;5009396;28;20040;-89
2023/03/17 10:03:26;;;;;;;2.03;0.60;;;13.40;99.90;;;;;;5009813;28;20028;-90
2023/03/17 10:05:52;;;;;;;1.35;0.45;;;13.40;99.90;;;;;;5026283;28;20915;-92
2023/03/17 10:08:28;;;;;;;1.48;0.52;;;13.40;99.90;;;;;;5025145;28;20473;-90
2023/03/17 10:11:20;;;;;;;2.53;0.50;;;13.10;99.90;;;;;;5015740;28;20036;-93
2023/03/17 10:14:14;;;;;;;1.77;0.75;;;13.00;99.90;;;;;;5018151;28;20426;-93
2023/03/17 10:17:11;;;;;;;1.55;0.40;;;13.00;99.90;;;;;;5039321;28;20036;-92
2023/03/17 10:19:55;;;;;;;2.40;0.45;;;13.10;99.90;;;;;;5015193;28;20492;-91
2023/03/17 10:22:38;;;;;;;3.78;0.60;;;13.00;99.90;;;;;;5037063;28;20108;-90
2023/03/17 10:25:13;;;;;;;1.13;0.40;;;13.00;99.90;;;;;;5031467;28;20033;-94
2023/03/17 10:27:41;;;;;;;1.83;0.50;;;13.50;99.90;;;;;;5021917;28;20579;-90
2023/03/17 10:30:19;;;;;;;1.48;0.43;;;13.60;99.90;;;;;;5011478;28;20056;-91
2023/03/17 10:32:45;;;;;;;0.98;0.40;;;13.60;99.90;;;;;;5019849;28;20028;-93
2023/03/17 10:35:13;;;;;;;1.77;0.40;;;13.50;99.90;;;;;;5044692;28;20631;-91
2023/03/17 10:37:41;;;;;;;1.15;0.40;;;13.50;99.90;;;;;;5028769;28;20034;-90
2023/03/17 10:40:19;;;;;;;1.40;0.43;;;13.70;99.90;;;;;;5019681;28;20041;-90
2023/03/17 10:42:53;;;;;;;2.47;0.40;;;13.70;99.90;;;;;;5030052;28;20040;-93
2023/03/17 10:45:31;;;;;;;2.45;0.40;;;13.60;99.90;;;;;;5020364;28;20037;-92
2023/03/17 10:47:58;;;;;;;1.13;0.50;;;13.80;99.90;;;;;;5018753;28;20033;-91
2023/03/17 10:50:29;;;;;;;2.00;0.40;;;13.80;99.90;;;;;;5017043;28;20120;-90
2023/03/17 10:53:07;;;;;;;1.83;0.52;;;13.80;99.90;;;;;;5018248;28;20041;-93
2023/03/17 10:55:41;;;;;;;0.85;0.30;;;13.80;99.90;;;;;;5032252;28;20028;-93
2023/03/17 10:58:14;;;;;;;1.73;0.38;;;13.70;99.90;;;;;;5024367;28;20391;-93
2023/03/17 11:00:55;;;;;;;1.10;0.30;;;13.70;99.90;;;;;;5038002;28;20040;-93
2023/03/17 11:03:24;;;;;;;1.38;0.30;;;13.80;99.90;;;;;;5021110;28;20021;-92
2023/03/17 11:06:02;;;;;;;1.43;0.50;;;14.00;99.90;;;;;;5037902;28;20072;-94
2023/03/17 11:08:49;;;;;;;2.55;0.40;;;14.10;99.90;;;;;;5022337;28;20496;-93
2023/03/17 11:11:29;;;;;;;1.23;0.35;;;14.30;99.90;;;;;;5032539;28;20436;-93
2023/03/17 11:14:02;;;;;;;2.13;0.40;;;14.30;99.90;;;;;;5030503;28;20271;-93
2023/03/17 11:16:30;;;;;;;1.60;0.40;;;14.30;99.90;;;;;;5027861;28;20068;-92
2023/03/17 11:18:58;;;;;;;2.95;0.40;;;14.40;99.90;;;;;;5022381;28;20065;-92
2023/03/17 11:21:31;;;;;;;1.90;0.40;;;14.40;99.90;;;;;;5031434;28;20060;-91
2023/03/17 11:24:18;;;;;;;1.40;0.40;;;14.60;99.90;;;;;;5028254;28;20153;-93
2023/03/17 11:26:49;;;;;;;2.38;0.40;;;14.70;99.90;;;;;;5029204;28;20029;-94
2023/03/17 11:29:31;;;;;;;1.05;0.40;;;14.70;99.90;;;;;;5038523;28;20033;-93
2023/03/17 11:32:17;;;;;;;3.78;0.63;;;15.10;99.90;;;;;;5007227;28;20026;-92
2023/03/17 11:34:50;;;;;;;1.35;0.40;;;15.40;99.90;;;;;;5037022;28;20025;-93
2023/03/17 11:37:22;;;;;;;1.50;0.40;;;15.80;99.90;;;;;;5010464;28;20437;-93
2023/03/17 11:39:51;;;;;;;1.30;0.43;;;15.80;99.90;;;;;;5021024;28;20030;-92
2023/03/17 11:42:22;;;;;;;1.50;0.40;;;15.70;99.90;;;;;;5017784;28;20037;-92
2023/03/17 11:45:02;;;;;;;2.67;0.60;;;15.50;99.90;;;;;;5018127;28;20112;-92
2023/03/17 11:47:35;;;;;;;1.48;0.50;;;15.30;99.90;;;;;;5019378;28;20541;-94
2023/03/17 11:50:19;;;;;;;2.78;0.50;;;15.20;99.90;;;;;;5012042;28;20034;-90
2023/03/17 11:53:16;;;;;;;1.70;0.40;;;15.30;99.90;;;;;;5012537;28;20278;-93
2023/03/17 11:55:48;;;;;;;2.60;0.60;;;15.50;99.90;;;;;;5022471;28;20030;-92
2023/03/17 11:58:34;;;;;;;2.28;0.50;;;15.50;99.90;;;;;;5025130;28;20041;-93
2023/03/17 12:01:02;;;;;;;2.35;0.50;;;15.30;99.90;;;;;;5035393;28;20029;-91
2023/03/17 12:03:35;;;;;;;2.50;0.80;;;15.60;99.90;;;;;;5038151;28;20153;-92
2023/03/17 12:06:06;;;;;;;2.53;0.90;;;15.90;99.90;;;;;;5012913;28;20037;-93
2023/03/17 12:08:44;;;;;;;3.50;0.70;;;15.60;99.90;;;;;;5021443;28;20027;-93
2023/03/17 12:11:23;;;;;;;1.73;0.40;;;15.40;99.90;;;;;;5038565;28;20489;-92
2023/03/17 12:13:55;;;;;;;1.40;0.50;;;15.80;99.90;;;;;;5009491;28;20029;-92
2023/03/17 12:16:46;;;;;;;2.22;0.80;;;16.00;99.90;;;;;;5017661;28;20030;-93
2023/03/17 12:19:35;;;;;;;1.90;0.63;;;16.30;99.90;;;;;;5018942;28;20528;-92
2023/03/17 12:22:25;;;;;;;2.63;0.50;;;16.40;99.90;;;;;;5021541;28;20034;-92
2023/03/17 12:25:15;;;;;;;3.20;0.60;;;16.60;99.90;;;;;;5030806;28;20128;-91
2023/03/17 12:28:13;;;;;;;1.98;0.60;;;16.50;99.90;;;;;;5011366;28;20030;-91
2023/03/17 12:30:53;;;;;;;2.13;0.50;;;16.40;99.90;;;;;;5010427;28;20025;-90
2023/03/17 12:33:29;;;;;;;1.55;0.57;;;16.60;99.90;;;;;;5024717;28;20540;-93
2023/03/17 12:35:58;;;;;;;1.25;0.40;;;17.00;99.90;;;;;;5031382;28;20042;-91
2023/03/17 12:38:42;;;;;;;3.22;0.50;;;17.00;99.90;;;;;;5036430;28;20086;-94
2023/03/17 12:41:37;;;;;;;2.00;0.47;;;16.90;99.90;;;;;;5028226;28;20025;-92
2023/03/17 12:44:14;;;;;;;1.98;0.40;;;16.90;99.90;;;;;;5019071;28;20036;-90
2023/03/17 12:46:54;;;;;;;1.45;0.40;;;16.80;99.90;;;;;;5015009;28;20083;-93
2023/03/17 12:49:57;;;;;;;1.67;0.40;;;16.90;99.90;;;;;;5012264;28;20029;-92
2023/03/17 12:52:48;;;;;;;1.13;0.30;;;17.10;99.90;;;;;;5014592;28;20033;-90
2023/03/17 12:55:16;;;;;;;1.15;0.40;;;17.30;99.90;;;;;;5018572;28;20071;-94
2023/03/17 12:57:56;;;;;;;1.58;0.40;;;17.30;99.90;;;;;;5011452;28;20077;-92
2023/03/17 13:00:28;;;;;;;2.47;0.50;;;17.40;99.90;;;;;;5030640;28;20029;-94
2023/03/17 13:03:24;;;;;;;1.30;0.50;;;17.10;99.90;;;;;;5039583;28;20389;-92
2023/03/17 13:06:07;;;;;;;1.95;0.50;;;17.00;99.90;;;;;;5030694;28;20469;-93
2023/03/17 13:08:40;;;;;;;1.48;0.40;;;17.00;99.90;;;;;;5023263;28;20053;-91